Airfield :
LOGIN :

Register | Disclaimer

   EN    FR    IT 

 










Legend :    VFR   Marginal VFR   IFR   Intensive IFR   Very Intensive IFR
Visi :
Ceiling :
>= 8 km
>= 3000ft
5 to 8 km
1000 to 3000 ft
1500m to 5 km
500 to 1000 ft
800 to 1500m
200 to 500 ft
< 800m
< 200 ft
Symbols :   Thunderstorms  Fog  Heavy snow  Heavy precipitations  Wind > 20 kt
SIGMETs :     Misc.  Thunderstorms  Icing  Turbulence  Mountain Waves  Volcanic Ashes






- Airport Elevation : 38 ft
- IATA code : BOH


EGHH - Bournemouth

CURRENT METAR :
  • 271750Z 31008KT CAVOK 06/M00 Q1011

EXPIRED METARs :
  • 271720Z 31012KT 260V030 9999 FEW048 07/M02 Q1011
  • 271650Z 31013KT 9999 FEW045 08/M01 Q1010
  • 271620Z 31014KT 280V350 9999 FEW040 08/M02 Q1009
  • 271550Z 31017KT 280V350 9999 FEW035 09/M01 Q1009
  • 271520Z 32017KT 280V360 9999 FEW035 09/M01 Q1008
  • 271450Z 32016KT 280V010 9999 FEW035 09/M02 Q1007

TAF TAF EGHH
Valid from the 27 at 18:00 until the 28 at 03:00 UTC


271705Z 2718/2803 29010KT 9999 FEW045
BECMG 2721/2724 23005KT
ATIS : +44 1202 364 151
Met : +44 1202 364 158 (TAF)



MET'MAP, your aeronautical weather chart ! - Copyright ORBIFLY December 2007 - Disclaimer

ORBIFLY MET'MAP TEAM :

Programming & Development : Alexandra Zaïnal
Concept & original design : Baudouin d'Aumeries
Assistance for programming : Marc-Olivier Méhu
Technical & hardware support : Manuel Goepfert

Contact : metmap@orbifly.com




SOURCES & CREDITS :

   NOAA